Time;durP1;ratioP1;P1;durP2;ratioP2;P2;SDS_P1;SDS_P2;PMS_P1;PMS_P2;Temp;Humidity;BMP_temperature;BMP_pressure;BME280_temperature;BME280_humidity;BME280_pressure;Samples;Min_cycle;Max_cycle;Signal;HPM_P1;HPM_P2
2021/06/10 00:00:52;;;;;;;16.48;12.68;;;;;;;;;;5022151;28;20281;-70
2021/06/10 00:03:18;;;;;;;17.98;12.95;;;;;;;;;;5016182;28;20679;-71
2021/06/10 00:05:43;;;;;;;18.13;13.02;;;;;;;;;;5026161;28;20530;-71
2021/06/10 00:08:10;;;;;;;18.38;12.82;;;;;;;;;;5021122;28;20273;-71
2021/06/10 00:10:38;;;;;;;15.10;13.15;;;;;;;;;;5025174;28;20197;-71
2021/06/10 00:13:03;;;;;;;16.13;13.77;;;;;;;;;;5027276;28;20556;-71
2021/06/10 00:15:34;;;;;;;16.38;13.77;;;;;;;;;;5016519;28;20197;-71
2021/06/10 00:18:00;;;;;;;19.55;14.45;;;;;;;;;;5021239;28;20264;-71
2021/06/10 00:20:28;;;;;;;19.13;14.30;;;;;;;;;;5017403;28;20183;-71
2021/06/10 00:22:55;;;;;;;17.85;14.90;;;;;;;;;;5027276;28;20205;-70
2021/06/10 00:25:24;;;;;;;18.55;14.68;;;;;;;;;;5017161;28;20305;-70
2021/06/10 00:27:50;;;;;;;17.27;14.18;;;;;;;;;;5017993;28;20268;-70
2021/06/10 00:30:17;;;;;;;16.95;14.70;;;;;;;;;;5019172;28;20261;-70
2021/06/10 00:32:47;;;;;;;17.95;14.75;;;;;;;;;;5026630;28;20540;-70
2021/06/10 00:35:14;;;;;;;18.80;14.73;;;;;;;;;;5017034;28;20189;-70
2021/06/10 00:37:40;;;;;;;18.35;14.50;;;;;;;;;;5022723;28;20195;-70
2021/06/10 00:40:07;;;;;;;16.77;13.60;;;;;;;;;;5023287;28;20567;-70
2021/06/10 00:42:33;;;;;;;21.38;14.45;;;;;;;;;;5019732;28;20198;-70
2021/06/10 00:44:59;;;;;;;16.55;14.68;;;;;;;;;;5016491;28;20367;-70
2021/06/10 00:47:24;;;;;;;19.38;14.98;;;;;;;;;;5019007;28;20543;-70
2021/06/10 00:49:49;;;;;;;21.27;14.93;;;;;;;;;;5019976;28;20206;-70
2021/06/10 00:52:15;;;;;;;20.33;14.93;;;;;;;;;;5014178;28;20193;-70
2021/06/10 00:54:40;;;;;;;22.88;15.85;;;;;;;;;;5029627;28;20236;-70
2021/06/10 00:57:06;;;;;;;19.23;15.13;;;;;;;;;;5015555;28;20939;-70
2021/06/10 00:59:32;;;;;;;18.90;15.35;;;;;;;;;;5028437;28;20303;-70
2021/06/10 01:01:59;;;;;;;19.77;15.20;;;;;;;;;;5011085;28;20351;-70
2021/06/10 01:04:25;;;;;;;20.63;15.65;;;;;;;;;;5018906;28;20220;-70
2021/06/10 01:07:16;;;;;;;20.90;15.23;;;;;;;;;;5014362;28;20581;-70
2021/06/10 01:09:59;;;;;;;21.10;15.55;;;;;;;;;;5015968;28;20213;-70
2021/06/10 01:12:53;;;;;;;18.17;14.80;;;;;;;;;;5012741;28;20189;-70
2021/06/10 01:15:23;;;;;;;19.35;14.95;;;;;;;;;;5021988;28;20182;-70
2021/06/10 01:17:49;;;;;;;19.88;15.70;;;;;;;;;;5016530;28;20646;-71
2021/06/10 01:20:18;;;;;;;22.25;16.05;;;;;;;;;;5022706;28;20190;-70
2021/06/10 01:22:58;;;;;;;19.23;15.50;;;;;;;;;;5013533;28;20190;-70
2021/06/10 01:25:45;;;;;;;18.85;16.08;;;;;;;;;;5023688;28;20630;-70
2021/06/10 01:28:15;;;;;;;19.85;14.95;;;;;;;;;;5014019;28;20185;-70
2021/06/10 01:30:48;;;;;;;21.23;15.50;;;;;;;;;;5025766;28;20218;-70
2021/06/10 01:33:23;;;;;;;20.73;15.35;;;;;;;;;;5015603;28;20568;-70
2021/06/10 01:35:57;;;;;;;18.30;15.57;;;;;;;;;;5019051;28;20190;-70
2021/06/10 01:38:24;;;;;;;19.35;16.00;;;;;;;;;;5015000;28;20724;-70
2021/06/10 01:40:51;;;;;;;21.17;16.10;;;;;;;;;;5040795;28;20544;-70
2021/06/10 01:43:18;;;;;;;19.77;16.35;;;;;;;;;;5013236;28;20230;-70
2021/06/10 01:45:48;;;;;;;18.20;15.40;;;;;;;;;;5026565;28;20201;-70
2021/06/10 01:48:14;;;;;;;19.38;15.68;;;;;;;;;;5015826;28;20174;-70
2021/06/10 01:50:40;;;;;;;24.75;16.40;;;;;;;;;;5021863;28;20343;-70
2021/06/10 01:53:06;;;;;;;19.85;16.17;;;;;;;;;;5019843;28;20182;-70
2021/06/10 01:55:32;;;;;;;21.50;16.90;;;;;;;;;;5015905;28;20201;-70
2021/06/10 01:57:59;;;;;;;20.67;16.58;;;;;;;;;;5025823;28;20511;-70
2021/06/10 02:00:25;;;;;;;20.10;15.90;;;;;;;;;;5017938;28;20700;-70
2021/06/10 02:02:52;;;;;;;21.92;16.23;;;;;;;;;;5023405;28;20662;-70
2021/06/10 02:05:21;;;;;;;22.60;17.30;;;;;;;;;;5016378;28;20194;-70
2021/06/10 02:07:47;;;;;;;23.65;17.48;;;;;;;;;;5024059;28;20291;-70
2021/06/10 02:10:18;;;;;;;23.80;17.88;;;;;;;;;;5012981;28;20209;-70
2021/06/10 02:12:43;;;;;;;23.70;18.23;;;;;;;;;;5026444;28;20553;-70
2021/06/10 02:15:10;;;;;;;29.08;18.42;;;;;;;;;;5019027;28;20186;-70
2021/06/10 02:17:37;;;;;;;22.92;18.67;;;;;;;;;;5020016;28;20197;-70
2021/06/10 02:20:07;;;;;;;27.85;18.52;;;;;;;;;;5016008;28;20221;-70
2021/06/10 02:22:35;;;;;;;24.60;18.20;;;;;;;;;;5023451;28;20292;-70
2021/06/10 02:25:01;;;;;;;24.83;18.48;;;;;;;;;;5018238;28;20239;-70
2021/06/10 02:27:27;;;;;;;27.48;18.65;;;;;;;;;;5027782;28;20743;-70
2021/06/10 02:29:53;;;;;;;24.25;19.17;;;;;;;;;;5027473;28;20285;-70
2021/06/10 02:32:18;;;;;;;21.67;17.95;;;;;;;;;;5011362;28;20541;-70
2021/06/10 02:34:44;;;;;;;29.05;19.33;;;;;;;;;;5024664;28;20186;-70
2021/06/10 02:37:11;;;;;;;25.02;20.58;;;;;;;;;;5010066;28;20186;-70
2021/06/10 02:39:42;;;;;;;24.50;20.02;;;;;;;;;;5027411;28;20217;-70
2021/06/10 02:42:11;;;;;;;25.45;19.83;;;;;;;;;;5016232;28;20193;-70
2021/06/10 02:44:37;;;;;;;24.80;20.42;;;;;;;;;;5028424;28;20283;-70
2021/06/10 02:47:05;;;;;;;27.50;20.75;;;;;;;;;;5014902;28;20198;-70
2021/06/10 02:49:32;;;;;;;25.40;20.42;;;;;;;;;;5030988;28;20243;-70
2021/06/10 02:51:59;;;;;;;28.73;20.85;;;;;;;;;;5016399;28;20706;-70
2021/06/10 02:54:25;;;;;;;25.60;21.40;;;;;;;;;;5026431;28;20193;-70
2021/06/10 02:56:51;;;;;;;27.40;22.38;;;;;;;;;;5016854;28;20538;-70
2021/06/10 02:59:19;;;;;;;27.40;22.63;;;;;;;;;;5031230;28;20285;-70
2021/06/10 03:01:46;;;;;;;28.70;22.52;;;;;;;;;;5014330;28;20539;-70
2021/06/10 03:04:14;;;;;;;26.42;21.75;;;;;;;;;;5028283;28;20189;-70
2021/06/10 03:06:40;;;;;;;28.83;21.63;;;;;;;;;;5025030;28;20266;-70
2021/06/10 03:09:06;;;;;;;28.67;21.73;;;;;;;;;;5015876;28;20201;-70
2021/06/10 03:11:33;;;;;;;27.77;22.10;;;;;;;;;;5023208;28;20271;-70
2021/06/10 03:13:59;;;;;;;26.90;21.33;;;;;;;;;;5015409;28;20193;-69
2021/06/10 03:16:25;;;;;;;30.52;22.27;;;;;;;;;;5021167;28;20190;-69
2021/06/10 03:18:52;;;;;;;27.58;21.85;;;;;;;;;;5015066;28;20197;-69
2021/06/10 03:21:19;;;;;;;31.42;21.90;;;;;;;;;;5018943;28;20265;-69
2021/06/10 03:23:44;;;;;;;27.90;22.58;;;;;;;;;;5014909;28;20218;-69
2021/06/10 03:26:10;;;;;;;26.05;22.05;;;;;;;;;;5020443;28;20685;-69
2021/06/10 03:28:37;;;;;;;28.55;23.05;;;;;;;;;;5020862;28;20224;-69
2021/06/10 03:31:02;;;;;;;30.85;23.10;;;;;;;;;;5023913;28;20643;-69
2021/06/10 03:33:28;;;;;;;30.13;23.30;;;;;;;;;;5013870;28;24502;-69
2021/06/10 03:35:55;;;;;;;36.78;27.33;;;;;;;;;;5023290;28;20670;-69
2021/06/10 03:38:22;;;;;;;35.08;25.70;;;;;;;;;;5018951;28;20277;-70
2021/06/10 03:40:48;;;;;;;35.53;26.77;;;;;;;;;;5017297;28;20178;-69
2021/06/10 03:43:15;;;;;;;34.75;26.77;;;;;;;;;;5022145;28;20286;-69
2021/06/10 03:45:40;;;;;;;33.83;25.85;;;;;;;;;;5016750;28;20197;-69
2021/06/10 03:48:09;;;;;;;33.17;26.08;;;;;;;;;;5023999;28;20189;-69
2021/06/10 03:50:36;;;;;;;32.42;26.83;;;;;;;;;;5015513;28;20202;-69
2021/06/10 03:53:02;;;;;;;31.55;26.25;;;;;;;;;;5023182;28;20186;-69
2021/06/10 03:55:27;;;;;;;35.20;26.98;;;;;;;;;;5014276;28;20193;-69
2021/06/10 03:57:53;;;;;;;35.58;28.00;;;;;;;;;;5016112;28;20317;-69
2021/06/10 04:00:19;;;;;;;36.05;28.13;;;;;;;;;;5013092;28;20566;-69
2021/06/10 04:02:44;;;;;;;39.20;29.55;;;;;;;;;;5021564;28;20646;-69
2021/06/10 04:05:10;;;;;;;36.78;29.00;;;;;;;;;;5014475;28;20182;-69
2021/06/10 04:07:36;;;;;;;38.92;28.90;;;;;;;;;;5024733;28;20217;-69
2021/06/10 04:10:02;;;;;;;37.05;28.88;;;;;;;;;;5022413;28;20202;-69
2021/06/10 04:12:27;;;;;;;38.95;29.90;;;;;;;;;;5019134;28;20182;-70
2021/06/10 04:14:52;;;;;;;37.15;29.83;;;;;;;;;;5027356;28;20280;-70
2021/06/10 04:17:18;;;;;;;38.72;30.23;;;;;;;;;;5018618;28;20194;-70
2021/06/10 04:19:43;;;;;;;36.10;29.63;;;;;;;;;;5028552;28;20178;-70
2021/06/10 04:22:09;;;;;;;35.72;28.88;;;;;;;;;;5018955;28;20190;-70
2021/06/10 04:24:34;;;;;;;36.47;29.23;;;;;;;;;;5026162;28;20186;-70
2021/06/10 04:27:01;;;;;;;34.88;28.38;;;;;;;;;;5018062;28;20204;-70
2021/06/10 04:29:27;;;;;;;30.42;26.25;;;;;;;;;;5025816;28;20229;-70
2021/06/10 04:31:52;;;;;;;30.80;25.50;;;;;;;;;;5017632;28;20209;-70
2021/06/10 04:34:17;;;;;;;30.48;24.80;;;;;;;;;;5027243;28;20178;-71
2021/06/10 04:36:43;;;;;;;28.23;24.35;;;;;;;;;;5016688;28;20646;-70
2021/06/10 04:39:08;;;;;;;30.70;25.30;;;;;;;;;;5026533;28;20233;-70
2021/06/10 04:41:33;;;;;;;29.85;23.17;;;;;;;;;;5016907;28;20274;-70
2021/06/10 04:43:59;;;;;;;26.92;23.45;;;;;;;;;;5020437;28;20333;-70
2021/06/10 04:46:24;;;;;;;27.95;24.02;;;;;;;;;;5022811;28;20290;-70
2021/06/10 04:48:49;;;;;;;27.35;22.98;;;;;;;;;;5018440;28;20196;-71
2021/06/10 04:51:15;;;;;;;27.55;23.13;;;;;;;;;;5022243;28;20257;-71
2021/06/10 04:53:42;;;;;;;26.55;21.75;;;;;;;;;;5013831;28;20192;-71
2021/06/10 04:56:08;;;;;;;25.67;22.15;;;;;;;;;;5022301;28;20186;-71
2021/06/10 04:58:33;;;;;;;24.83;21.85;;;;;;;;;;5019169;28;20208;-71
2021/06/10 05:00:59;;;;;;;24.65;21.98;;;;;;;;;;5022165;28;20218;-71
2021/06/10 05:03:24;;;;;;;28.15;23.00;;;;;;;;;;5003607;28;20195;-71
2021/06/10 05:05:49;;;;;;;28.70;23.80;;;;;;;;;;5021677;28;20202;-71
2021/06/10 05:08:15;;;;;;;26.08;23.27;;;;;;;;;;5010019;28;20190;-71
2021/06/10 05:10:40;;;;;;;27.20;24.30;;;;;;;;;;5019762;28;20574;-70
2021/06/10 05:13:06;;;;;;;26.73;23.85;;;;;;;;;;5012833;28;20551;-70
2021/06/10 05:15:31;;;;;;;27.17;24.38;;;;;;;;;;5018562;28;20551;-70
2021/06/10 05:17:56;;;;;;;29.73;25.77;;;;;;;;;;5019321;28;20594;-70
2021/06/10 05:20:22;;;;;;;27.15;23.65;;;;;;;;;;5013251;28;20681;-70
2021/06/10 05:22:48;;;;;;;29.65;25.00;;;;;;;;;;5021761;28;20201;-71
2021/06/10 05:25:13;;;;;;;32.60;23.13;;;;;;;;;;5010016;28;20232;-70
2021/06/10 05:27:38;;;;;;;31.27;23.90;;;;;;;;;;5021890;28;20289;-70
2021/06/10 05:30:05;;;;;;;32.00;24.60;;;;;;;;;;5012027;28;20573;-70
2021/06/10 05:32:31;;;;;;;29.45;24.05;;;;;;;;;;5016814;28;20240;-70
2021/06/10 05:34:57;;;;;;;30.40;25.48;;;;;;;;;;5006924;28;20198;-70
2021/06/10 05:37:22;;;;;;;36.10;25.17;;;;;;;;;;5022207;28;20182;-70
2021/06/10 05:39:48;;;;;;;30.15;24.08;;;;;;;;;;5007435;28;20641;-70
2021/06/10 05:42:14;;;;;;;31.02;24.13;;;;;;;;;;5021262;28;20198;-70
2021/06/10 05:44:40;;;;;;;31.23;24.92;;;;;;;;;;5008740;28;20222;-70
2021/06/10 05:47:05;;;;;;;31.63;23.75;;;;;;;;;;5020596;28;20197;-70
2021/06/10 05:49:30;;;;;;;32.17;24.77;;;;;;;;;;5018559;28;20268;-70
2021/06/10 05:51:56;;;;;;;32.53;25.60;;;;;;;;;;5014140;28;20185;-70
2021/06/10 05:54:21;;;;;;;34.53;26.10;;;;;;;;;;4316021;28;10000733;-70
2021/06/10 05:56:46;;;;;;;35.67;25.13;;;;;;;;;;5004178;28;20190;-70
2021/06/10 05:59:12;;;;;;;34.33;25.77;;;;;;;;;;5013051;28;20436;-70
2021/06/10 06:01:37;;;;;;;31.33;24.77;;;;;;;;;;5003695;28;20534;-70
2021/06/10 06:04:03;;;;;;;32.50;23.13;;;;;;;;;;5018078;28;20569;-70
2021/06/10 06:06:28;;;;;;;27.05;21.80;;;;;;;;;;5008846;28;20190;-70
2021/06/10 06:08:53;;;;;;;26.42;21.40;;;;;;;;;;5017137;28;20518;-70
2021/06/10 06:11:19;;;;;;;23.95;16.60;;;;;;;;;;5005624;28;20289;-69
2021/06/10 06:16:20;;;;;;;17.52;14.48;;;;;;;;;;5008013;28;20669;-70
2021/06/10 06:18:50;;;;;;;19.98;15.05;;;;;;;;;;5017786;28;20196;-70
2021/06/10 06:21:16;;;;;;;17.58;14.85;;;;;;;;;;5019945;28;20253;-71
2021/06/10 06:23:41;;;;;;;20.00;14.70;;;;;;;;;;5007506;28;20194;-70
2021/06/10 06:26:09;;;;;;;18.00;15.45;;;;;;;;;;5019100;28;20673;-70
2021/06/10 06:28:36;;;;;;;17.30;15.45;;;;;;;;;;5010566;28;20719;-71
2021/06/10 06:31:01;;;;;;;19.15;15.00;;;;;;;;;;5015483;28;20704;-70
2021/06/10 06:33:27;;;;;;;17.77;14.63;;;;;;;;;;5007741;28;20350;-71
2021/06/10 06:35:52;;;;;;;19.88;14.13;;;;;;;;;;5016040;28;20273;-69
2021/06/10 06:38:18;;;;;;;17.75;14.80;;;;;;;;;;5006833;28;20194;-70
2021/06/10 06:40:43;;;;;;;18.30;14.05;;;;;;;;;;5021830;28;20177;-69
2021/06/10 06:43:11;;;;;;;16.90;13.85;;;;;;;;;;5011460;28;20226;-70
2021/06/10 06:45:37;;;;;;;17.85;15.20;;;;;;;;;;5023331;28;20181;-70
2021/06/10 06:48:02;;;;;;;18.95;14.07;;;;;;;;;;5008444;28;20190;-70
2021/06/10 06:50:27;;;;;;;20.48;13.82;;;;;;;;;;5022155;28;20571;-70
2021/06/10 06:52:53;;;;;;;14.90;12.60;;;;;;;;;;5024606;28;20646;-70
2021/06/10 06:55:18;;;;;;;17.08;12.52;;;;;;;;;;5009993;28;20281;-71
2021/06/10 06:57:44;;;;;;;17.90;12.85;;;;;;;;;;5018374;28;20209;-69
2021/06/10 07:00:09;;;;;;;18.83;12.25;;;;;;;;;;5013518;28;20919;-71
2021/06/10 07:02:35;;;;;;;15.65;12.05;;;;;;;;;;5023507;28;20666;-70
2021/06/10 07:05:00;;;;;;;15.05;11.23;;;;;;;;;;5009840;28;20237;-70
2021/06/10 07:07:26;;;;;;;14.45;10.93;;;;;;;;;;5026335;28;20222;-70
2021/06/10 07:09:51;;;;;;;14.00;10.50;;;;;;;;;;5010675;28;20264;-70
2021/06/10 07:12:17;;;;;;;11.63;10.32;;;;;;;;;;5024968;28;20722;-70
2021/06/10 07:14:43;;;;;;;15.55;11.23;;;;;;;;;;5013703;28;20225;-70
2021/06/10 07:17:09;;;;;;;15.80;10.85;;;;;;;;;;5026905;28;20178;-69
2021/06/10 07:19:34;;;;;;;12.65;11.25;;;;;;;;;;5014070;28;20523;-70
2021/06/10 07:21:59;;;;;;;14.45;10.95;;;;;;;;;;5022718;28;20186;-70
2021/06/10 07:24:25;;;;;;;12.45;11.15;;;;;;;;;;5023007;28;20646;-70
2021/06/10 07:26:50;;;;;;;13.32;11.23;;;;;;;;;;5020934;28;20192;-70
2021/06/10 07:29:17;;;;;;;13.32;10.50;;;;;;;;;;5027994;28;20178;-70
2021/06/10 07:31:43;;;;;;;14.63;10.60;;;;;;;;;;5020381;28;20327;-70
2021/06/10 07:34:09;;;;;;;13.52;11.13;;;;;;;;;;5022072;28;20204;-69
2021/06/10 07:36:36;;;;;;;17.50;11.35;;;;;;;;;;5014684;28;20226;-70
2021/06/10 07:39:08;;;;;;;12.00;9.65;;;;;;;;;;5025266;28;20182;-70
2021/06/10 07:41:35;;;;;;;10.80;9.20;;;;;;;;;;5021867;28;20174;-70
2021/06/10 07:44:00;;;;;;;13.57;9.88;;;;;;;;;;5024489;28;20222;-70
2021/06/10 07:46:25;;;;;;;10.57;9.48;;;;;;;;;;5017982;28;20193;-69
2021/06/10 07:48:51;;;;;;;8.90;8.00;;;;;;;;;;5027473;28;20190;-70
2021/06/10 07:51:16;;;;;;;9.98;8.45;;;;;;;;;;5013763;28;20769;-70
2021/06/10 07:53:42;;;;;;;11.68;9.05;;;;;;;;;;5023247;28;20182;-69
2021/06/10 07:56:08;;;;;;;13.13;10.13;;;;;;;;;;5032232;28;20189;-70
2021/06/10 07:58:35;;;;;;;12.85;9.75;;;;;;;;;;5016879;28;20654;-70
2021/06/10 08:01:01;;;;;;;12.68;9.85;;;;;;;;;;5021322;28;21831;-69
2021/06/10 08:03:26;;;;;;;8.80;7.82;;;;;;;;;;5013386;28;20200;-68
2021/06/10 08:05:52;;;;;;;11.48;7.63;;;;;;;;;;5024656;28;20182;-69
2021/06/10 08:08:18;;;;;;;9.85;7.45;;;;;;;;;;5006084;28;20190;-68
2021/06/10 08:10:45;;;;;;;9.63;7.22;;;;;;;;;;5021964;28;20662;-69
2021/06/10 08:13:11;;;;;;;8.13;6.00;;;;;;;;;;5005791;28;20193;-68
2021/06/10 08:15:37;;;;;;;10.43;7.10;;;;;;;;;;5023878;28;20182;-69
2021/06/10 08:18:03;;;;;;;8.70;7.03;;;;;;;;;;5015771;28;20194;-69
2021/06/10 08:20:30;;;;;;;7.68;6.50;;;;;;;;;;5023572;28;20669;-70
2021/06/10 08:22:59;;;;;;;8.02;6.65;;;;;;;;;;5011366;28;20202;-69
2021/06/10 08:25:27;;;;;;;11.32;7.15;;;;;;;;;;5025605;28;20182;-70
2021/06/10 08:27:53;;;;;;;9.82;7.55;;;;;;;;;;5020187;28;20186;-69
2021/06/10 08:30:19;;;;;;;8.65;6.88;;;;;;;;;;5020038;28;20230;-70
2021/06/10 08:32:44;;;;;;;9.13;7.10;;;;;;;;;;5016466;28;20236;-69
2021/06/10 08:35:10;;;;;;;9.35;6.72;;;;;;;;;;5016793;28;20181;-68
2021/06/10 08:37:36;;;;;;;7.95;6.53;;;;;;;;;;5021952;28;20240;-69
2021/06/10 08:40:03;;;;;;;8.20;6.22;;;;;;;;;;5005999;28;20189;-69
2021/06/10 08:42:29;;;;;;;6.88;4.10;;;;;;;;;;5018141;28;20192;-68
2021/06/10 08:44:54;;;;;;;6.40;4.60;;;;;;;;;;5014697;28;20229;-67
2021/06/10 08:47:23;;;;;;;5.15;4.63;;;;;;;;;;5021957;28;20194;-69
2021/06/10 08:49:50;;;;;;;6.60;5.88;;;;;;;;;;5013258;28;20549;-68
2021/06/10 08:52:15;;;;;;;6.30;5.13;;;;;;;;;;5018876;28;20276;-68
2021/06/10 08:54:41;;;;;;;9.48;5.68;;;;;;;;;;5012348;28;20198;-68
2021/06/10 08:57:09;;;;;;;5.43;4.65;;;;;;;;;;5017111;28;20193;-68
2021/06/10 08:59:35;;;;;;;7.00;4.95;;;;;;;;;;5011549;28;20214;-71
2021/06/10 09:02:00;;;;;;;6.45;5.68;;;;;;;;;;5017994;28;20276;-68
2021/06/10 09:04:25;;;;;;;6.35;4.72;;;;;;;;;;5015434;28;20192;-69
2021/06/10 09:06:53;;;;;;;8.35;5.70;;;;;;;;;;5014454;28;20269;-68
2021/06/10 09:09:35;;;;;;;9.00;5.32;;;;;;;;;;5017120;28;20190;-68
2021/06/10 09:12:05;;;;;;;6.93;4.97;;;;;;;;;;5009346;28;20214;-69
2021/06/10 09:14:31;;;;;;;9.65;5.90;;;;;;;;;;5020469;28;20189;-69
2021/06/10 09:16:56;;;;;;;8.10;5.40;;;;;;;;;;5008593;28;20244;-69
2021/06/10 09:19:30;;;;;;;6.97;4.97;;;;;;;;;;5018267;28;20741;-68
2021/06/10 09:22:00;;;;;;;6.28;5.22;;;;;;;;;;5009312;28;20277;-68
2021/06/10 09:24:35;;;;;;;5.40;4.68;;;;;;;;;;5024709;28;20637;-68
2021/06/10 09:27:10;;;;;;;6.55;4.53;;;;;;;;;;5009906;28;20197;-70
2021/06/10 09:29:44;;;;;;;7.22;4.57;;;;;;;;;;5019551;28;20217;-70
2021/06/10 09:32:13;;;;;;;7.70;4.28;;;;;;;;;;5011742;28;20205;-70
2021/06/10 09:35:04;;;;;;;5.10;3.80;;;;;;;;;;5021519;28;20621;-70
2021/06/10 09:37:33;;;;;;;4.15;2.72;;;;;;;;;;5018682;28;20228;-69
2021/06/10 09:40:02;;;;;;;5.57;2.70;;;;;;;;;;5023560;28;20185;-68
2021/06/10 09:42:33;;;;;;;3.38;2.40;;;;;;;;;;5016903;28;20194;-67
2021/06/10 09:45:00;;;;;;;4.68;3.15;;;;;;;;;;5026986;28;20604;-67
2021/06/10 09:47:36;;;;;;;4.38;3.60;;;;;;;;;;5011175;28;20367;-70
2021/06/10 09:50:27;;;;;;;5.53;2.80;;;;;;;;;;5019136;28;20313;-69
2021/06/10 09:52:57;;;;;;;4.93;3.22;;;;;;;;;;5017438;28;20251;-70
2021/06/10 09:55:27;;;;;;;3.67;3.30;;;;;;;;;;5020785;28;20652;-68
2021/06/10 09:57:55;;;;;;;5.57;3.25;;;;;;;;;;5009513;28;20182;-67
2021/06/10 10:00:25;;;;;;;4.85;3.40;;;;;;;;;;5015810;28;20186;-70
2021/06/10 10:02:50;;;;;;;5.03;2.65;;;;;;;;;;5011911;28;20244;-70
2021/06/10 10:05:16;;;;;;;5.10;2.78;;;;;;;;;;5022363;28;20583;-71
2021/06/10 10:07:42;;;;;;;3.80;2.70;;;;;;;;;;5024632;28;20273;-67
2021/06/10 10:10:09;;;;;;;4.78;2.67;;;;;;;;;;5007583;28;20222;-72
2021/06/10 10:12:39;;;;;;;3.20;2.47;;;;;;;;;;5017734;28;20201;-70
2021/06/10 10:15:05;;;;;;;4.22;2.90;;;;;;;;;;5010203;28;20209;-73
2021/06/10 10:17:30;;;;;;;5.78;2.70;;;;;;;;;;5017142;28;20289;-70
2021/06/10 10:19:57;;;;;;;4.85;2.58;;;;;;;;;;5013607;28;20728;-70
2021/06/10 10:22:26;;;;;;;4.60;2.78;;;;;;;;;;5020445;28;20261;-69
2021/06/10 10:24:55;;;;;;;3.88;3.00;;;;;;;;;;5006931;28;20187;-70
2021/06/10 10:27:22;;;;;;;5.63;2.67;;;;;;;;;;5014125;28;20244;-69
2021/06/10 10:29:48;;;;;;;3.40;2.53;;;;;;;;;;5012410;28;20485;-69
2021/06/10 10:32:43;;;;;;;5.68;2.53;;;;;;;;;;5014961;28;20557;-69
2021/06/10 10:35:32;;;;;;;4.57;3.08;;;;;;;;;;5005706;28;20195;-71
2021/06/10 10:37:58;;;;;;;2.70;2.33;;;;;;;;;;5015558;28;20646;-70
2021/06/10 10:40:27;;;;;;;6.93;2.33;;;;;;;;;;5011764;28;20185;-73
2021/06/10 10:42:55;;;;;;;4.28;3.00;;;;;;;;;;5021089;28;20186;-70
2021/06/10 10:45:25;;;;;;;3.70;2.90;;;;;;;;;;5006986;28;20193;-72
2021/06/10 10:47:59;;;;;;;4.22;3.05;;;;;;;;;;5016130;28;20544;-69
2021/06/10 10:50:39;;;;;;;3.38;2.97;;;;;;;;;;5011597;28;22486;-69
2021/06/10 10:53:14;;;;;;;6.30;3.72;;;;;;;;;;5014968;28;21294;-71
2021/06/10 10:55:39;;;;;;;6.95;5.10;;;;;;;;;;5010055;28;20245;-69
2021/06/10 10:58:26;;;;;;;6.45;3.90;;;;;;;;;;5020067;28;20216;-68
2021/06/10 11:00:59;;;;;;;6.38;4.93;;;;;;;;;;5004457;28;20218;-68
2021/06/10 11:03:27;;;;;;;7.47;4.53;;;;;;;;;;5021365;28;20720;-70
2021/06/10 11:05:53;;;;;;;5.28;4.43;;;;;;;;;;5025510;28;20182;-70
2021/06/10 11:08:22;;;;;;;6.53;4.53;;;;;;;;;;5014079;28;20226;-70
2021/06/10 11:10:54;;;;;;;5.00;4.00;;;;;;;;;;5028212;28;20284;-70
2021/06/10 11:13:24;;;;;;;4.25;3.45;;;;;;;;;;5014421;28;20573;-69
2021/06/10 11:15:50;;;;;;;4.00;3.40;;;;;;;;;;5025421;28;20285;-72
2021/06/10 11:18:42;;;;;;;4.32;3.33;;;;;;;;;;5014882;28;20190;-72
2021/06/10 11:21:09;;;;;;;5.80;3.50;;;;;;;;;;5025998;28;20206;-68
2021/06/10 11:23:34;;;;;;;3.88;3.28;;;;;;;;;;5018153;28;20203;-70
2021/06/10 11:26:03;;;;;;;6.50;3.90;;;;;;;;;;5026030;28;20178;-70
2021/06/10 11:28:35;;;;;;;4.93;3.53;;;;;;;;;;5020661;28;20709;-74
2021/06/10 11:31:19;;;;;;;4.18;2.88;;;;;;;;;;5024733;28;20288;-70
2021/06/10 11:33:44;;;;;;;2.63;2.42;;;;;;;;;;5017631;28;20237;-69
2021/06/10 11:36:12;;;;;;;2.10;1.90;;;;;;;;;;5029007;28;20186;-70
2021/06/10 11:38:40;;;;;;;3.10;2.20;;;;;;;;;;5017892;28;20182;-69
2021/06/10 11:41:08;;;;;;;2.88;2.00;;;;;;;;;;5026751;28;20950;-69
2021/06/10 11:43:37;;;;;;;2.95;1.98;;;;;;;;;;5015045;28;20284;-69
2021/06/10 11:46:06;;;;;;;2.85;2.08;;;;;;;;;;5029825;28;20200;-70
2021/06/10 11:48:42;;;;;;;4.75;2.75;;;;;;;;;;5017693;28;20198;-70
2021/06/10 11:51:30;;;;;;;4.85;2.97;;;;;;;;;;5027202;28;20217;-69
2021/06/10 11:54:03;;;;;;;4.70;2.72;;;;;;;;;;5016167;28;20284;-69
2021/06/10 11:56:29;;;;;;;4.38;2.45;;;;;;;;;;5026336;28;20680;-68
2021/06/10 11:58:58;;;;;;;9.65;2.30;;;;;;;;;;5017856;28;23430;-70
2021/06/10 12:01:24;;;;;;;3.28;2.40;;;;;;;;;;5026637;28;20198;-69
2021/06/10 12:03:49;;;;;;;4.78;3.08;;;;;;;;;;5015879;28;20240;-72
2021/06/10 12:06:16;;;;;;;5.07;3.35;;;;;;;;;;5025058;28;20194;-69
2021/06/10 12:08:45;;;;;;;3.97;3.33;;;;;;;;;;5024059;28;20650;-70
2021/06/10 12:11:13;;;;;;;5.18;3.20;;;;;;;;;;5012289;28;20297;-69
2021/06/10 12:13:45;;;;;;;4.65;3.33;;;;;;;;;;5021300;28;20277;-70
2021/06/10 12:16:12;;;;;;;5.50;2.95;;;;;;;;;;5016196;28;20193;-69
2021/06/10 12:18:40;;;;;;;4.80;3.10;;;;;;;;;;5024982;28;20197;-69
2021/06/10 12:21:08;;;;;;;4.57;3.40;;;;;;;;;;5013883;28;20624;-68
2021/06/10 12:23:42;;;;;;;4.97;3.30;;;;;;;;;;5021067;28;20173;-70
2021/06/10 12:26:14;;;;;;;3.83;3.42;;;;;;;;;;5013018;28;20256;-69
2021/06/10 12:28:54;;;;;;;3.60;3.30;;;;;;;;;;5014732;28;20210;-69
2021/06/10 12:31:25;;;;;;;5.95;3.60;;;;;;;;;;5007754;28;20206;-68
2021/06/10 12:33:59;;;;;;;5.40;2.88;;;;;;;;;;5015372;28;20278;-68
2021/06/10 12:36:33;;;;;;;4.72;3.35;;;;;;;;;;5009579;28;20529;-68
2021/06/10 12:39:03;;;;;;;4.03;2.63;;;;;;;;;;5017762;28;20268;-68
2021/06/10 12:41:32;;;;;;;3.63;2.90;;;;;;;;;;5007018;28;20195;-68
2021/06/10 12:44:12;;;;;;;5.47;2.58;;;;;;;;;;5017165;28;20250;-70
2021/06/10 12:46:57;;;;;;;4.72;3.45;;;;;;;;;;5009846;28;20188;-68
2021/06/10 12:49:47;;;;;;;5.13;4.10;;;;;;;;;;5016297;28;20181;-73
2021/06/10 12:52:26;;;;;;;7.95;4.10;;;;;;;;;;5012595;28;20209;-69
2021/06/10 12:55:00;;;;;;;5.63;4.00;;;;;;;;;;5018078;28;20171;-68
2021/06/10 12:57:33;;;;;;;6.40;4.68;;;;;;;;;;5007949;28;20221;-69
2021/06/10 13:00:05;;;;;;;5.32;3.90;;;;;;;;;;5017974;28;20191;-69
2021/06/10 13:02:32;;;;;;;4.95;3.20;;;;;;;;;;5012421;28;20206;-69
2021/06/10 13:05:13;;;;;;;7.03;2.83;;;;;;;;;;5024203;28;20178;-69
2021/06/10 13:07:42;;;;;;;4.57;2.78;;;;;;;;;;4315378;28;10000781;-68
2021/06/10 13:10:12;;;;;;;5.28;2.60;;;;;;;;;;5021195;28;20198;-69
2021/06/10 13:12:46;;;;;;;5.95;2.88;;;;;;;;;;5012904;28;20704;-70
2021/06/10 13:15:26;;;;;;;5.88;3.42;;;;;;;;;;5024368;28;20598;-71
2021/06/10 13:17:57;;;;;;;3.08;2.63;;;;;;;;;;5009693;28;20230;-69
2021/06/10 13:20:58;;;;;;;5.45;3.20;;;;;;;;;;5019458;28;20200;-70
2021/06/10 13:23:26;;;;;;;4.30;2.58;;;;;;;;;;5008368;28;20472;-69
2021/06/10 13:26:20;;;;;;;4.72;3.28;;;;;;;;;;5017520;28;20255;-72
2021/06/10 13:29:05;;;;;;;3.85;3.47;;;;;;;;;;5020165;28;20289;-68
2021/06/10 13:31:32;;;;;;;4.15;3.25;;;;;;;;;;5019272;28;20225;-68
2021/06/10 13:34:03;;;;;;;8.57;3.25;;;;;;;;;;5012859;28;20564;-68
2021/06/10 13:36:31;;;;;;;5.40;2.70;;;;;;;;;;5015237;28;20297;-69
2021/06/10 13:38:58;;;;;;;3.72;2.97;;;;;;;;;;5013620;28;20267;-69
2021/06/10 13:41:26;;;;;;;7.18;2.75;;;;;;;;;;5015569;28;20192;-70
2021/06/10 13:43:52;;;;;;;4.40;2.70;;;;;;;;;;5007079;28;20226;-71
2021/06/10 13:46:18;;;;;;;5.00;2.63;;;;;;;;;;5012510;28;20529;-71
2021/06/10 13:48:44;;;;;;;4.90;2.22;;;;;;;;;;5009184;28;20175;-70
2021/06/10 13:51:10;;;;;;;3.65;2.70;;;;;;;;;;5007335;28;20697;-70
2021/06/10 13:53:36;;;;;;;3.00;2.70;;;;;;;;;;5010895;28;20233;-69
2021/06/10 13:56:02;;;;;;;6.53;3.22;;;;;;;;;;5000660;28;20196;-69
2021/06/10 13:58:28;;;;;;;3.42;2.88;;;;;;;;;;5013608;28;20273;-69
2021/06/10 14:00:53;;;;;;;3.13;2.72;;;;;;;;;;5005312;28;20216;-73
2021/06/10 14:03:21;;;;;;;4.30;2.97;;;;;;;;;;5016050;28;20198;-68
2021/06/10 14:05:48;;;;;;;3.08;2.78;;;;;;;;;;5011469;28;20184;-70
2021/06/10 14:08:14;;;;;;;5.18;3.08;;;;;;;;;;5012987;28;20277;-68
2021/06/10 14:10:39;;;;;;;4.63;3.00;;;;;;;;;;5011615;28;20569;-68
2021/06/10 14:13:05;;;;;;;5.82;2.70;;;;;;;;;;5017080;28;20190;-69
2021/06/10 14:15:30;;;;;;;3.28;2.30;;;;;;;;;;5012039;28;20232;-68
2021/06/10 14:17:55;;;;;;;6.13;2.63;;;;;;;;;;5020054;28;20201;-68
2021/06/10 14:20:21;;;;;;;3.30;3.00;;;;;;;;;;5012617;28;20236;-68
2021/06/10 14:22:46;;;;;;;4.10;2.75;;;;;;;;;;5017396;28;20524;-69
2021/06/10 14:25:13;;;;;;;4.15;2.80;;;;;;;;;;5020634;28;20194;-68
2021/06/10 14:27:39;;;;;;;3.00;2.70;;;;;;;;;;5006657;28;20699;-69
2021/06/10 14:32:35;;;;;;;7.22;3.17;;;;;;;;;;5007891;28;20205;-69
2021/06/10 14:35:02;;;;;;;3.88;2.83;;;;;;;;;;5024304;28;20200;-69
2021/06/10 14:37:29;;;;;;;4.40;2.75;;;;;;;;;;5008428;28;21355;-69
2021/06/10 14:39:55;;;;;;;3.33;3.03;;;;;;;;;;5021089;28;20256;-70